Brattleboro, VT (05301)

12:19 AM EST on January 31, 2015 (GMT -0500)
Deer Park | Change Station
CLOSE
Current Station
Personal Weather Station
Location: Halifax, VT
Elevation: 1677 ft
Nearby Weather Stations
Active Advisory: Wind Chill Advisory Active Notice: Public Information Statement

Elev 1677 ft 42.79 °N, 72.73 °W | Updated 30 seconds ago

Mostly Cloudy
Mostly Cloudy
5.9 °F
Feels Like -4 °F
N
5.1
Wind Variable Wind from West
Gusts 7.4 mph

Today
High -- | Low -- °F
--% Chance of Precip.
Yesterday
High -- | Low -- °F
Precip. -- in
7:06 AM 5:02 PM
Waxing Gibbous, 87% visible
Pressure 29.88 in
Visibility 10.0 miles
Clouds Clear
Windchill -4 °F
Dew Point -8 °F
Humidity 51%
Rainfall 0.00 in
Snow Depth Not available.
UV 0.0 out of 12
Pollen .10 out of 12
Air Quality Not available.
Flu Activity Not available.
METAR KEEN 310515Z AUTO 34014G19KT 10SM CLR M12/M18 A2988 RMK AO1

More Conditions Fewer Conditions

Pressure 29.88 in
Visibility 10.0 miles
Clouds Clear
Windchill -4 °F
Dew Point -8 °F
Humidity 51%
Rainfall 0.00 in
Snow Depth Not available.
UV 0.0 out of 12
Pollen .10 out of 12
Air Quality Not available.
Flu Activity Not available.
METAR KEEN 310515Z AUTO 34014G19KT 10SM CLR M12/M18 A2988 RMK AO1

More Conditions Fewer Conditions

10-Day Weather Forecast

Almanac

Astronomy

Jan. 31, 2015 Rise Set
Actual Time
Civil Twilight
Nautical Twilight
Astronomical Twilight
Moon
Length of Visible Light
Length of Day
Tomorrow will be .
, % of the Moon is Illuminated

Today's Extremes

State Highs State Lows

Community

WunderPhotos

Upload Photos

1,792,005 photos uploaded!

WunderBlogs® & News

Nearby

Air Quality

  Air Quality AQ Index Pollutant
Not available.

Snow Depth

Station Depth Elevation

Earthquake Activity

City Distance Mag. Time & Date
Minimum magnitude displayed is 2.5.

Coastal Water Temperatures

Place Temperature

Nearby Weather Stations